createdAt,value
2018-07-05T00:00:30.125Z,85.24
2018-07-05T00:01:30.036Z,85.62
2018-07-05T00:02:29.946Z,85.42
2018-07-05T00:03:29.856Z,85.62
2018-07-05T00:04:29.749Z,85.81
2018-07-05T00:05:29.657Z,85.42
2018-07-05T00:06:29.571Z,85.04
2018-07-05T00:07:29.482Z,85.04
2018-07-05T00:08:29.378Z,84.47
2018-07-05T00:09:29.288Z,84.66
2018-07-05T00:10:29.193Z,84.75
2018-07-05T00:11:29.090Z,84.95
2018-07-05T00:12:29.002Z,83.98
2018-07-05T00:13:28.910Z,84.66
2018-07-05T00:14:28.804Z,85.14
2018-07-05T00:15:28.713Z,84.56
2018-07-05T00:16:28.623Z,84.75
2018-07-05T00:17:28.534Z,84.85
2018-07-05T00:18:28.433Z,84.61
2018-07-05T00:19:28.342Z,83.80
2018-07-05T00:20:28.252Z,84.04
2018-07-05T00:21:28.160Z,84.23
2018-07-05T00:22:28.053Z,84.42
2018-07-05T00:23:27.968Z,85.38
2018-07-05T00:24:27.870Z,85.19
2018-07-05T00:25:27.766Z,85.04
2018-07-05T00:26:27.930Z,85.67
2018-07-05T00:27:27.589Z,85.14
2018-07-05T00:28:27.484Z,85.00
2018-07-05T00:29:27.393Z,84.33
2018-07-05T00:30:27.306Z,84.14
2018-07-05T00:31:27.215Z,83.56
2018-07-05T00:32:27.110Z,84.33
2018-07-05T00:33:27.018Z,84.33
2018-07-05T00:34:26.925Z,84.04
2018-07-05T00:35:26.821Z,83.27
2018-07-05T00:36:26.734Z,83.94
2018-07-05T00:37:26.644Z,83.56
2018-07-05T00:38:26.536Z,84.04
2018-07-05T00:39:26.446Z,83.75
2018-07-05T00:40:26.356Z,82.89
2018-07-05T00:41:26.265Z,83.18
2018-07-05T00:42:26.169Z,83.85
2018-07-05T00:43:26.076Z,84.91
2018-07-05T00:44:25.978Z,84.91
2018-07-05T00:45:25.874Z,85.28
2018-07-05T00:46:25.789Z,84.23
2018-07-05T00:47:25.696Z,82.98
2018-07-05T00:48:25.600Z,82.98
2018-07-05T00:49:25.506Z,83.18
2018-07-05T00:50:25.409Z,83.27
2018-07-05T00:51:25.308Z,82.31
2018-07-05T00:52:25.221Z,82.41
2018-07-05T00:53:25.142Z,83.18
2018-07-05T00:54:25.060Z,82.51
2018-07-05T00:55:24.932Z,83.56
2018-07-05T00:56:24.849Z,82.60
2018-07-05T00:57:24.748Z,83.08
2018-07-05T00:58:24.649Z,83.61
2018-07-05T00:59:24.559Z,84.23
2018-07-05T01:00:24.465Z,84.33
2018-07-05T01:01:24.362Z,85.38
2018-07-05T01:02:24.275Z,85.38
2018-07-05T01:03:24.185Z,83.94
2018-07-05T01:04:24.090Z,84.33
2018-07-05T01:05:23.987Z,84.61
2018-07-05T01:06:24.192Z,84.19
2018-07-05T01:07:23.801Z,83.65
2018-07-05T01:08:23.702Z,84.04
2018-07-05T01:09:23.613Z,82.94
2018-07-05T01:10:23.516Z,83.08
2018-07-05T01:11:23.413Z,82.56
2018-07-05T01:12:23.325Z,82.18
2018-07-05T01:13:23.234Z,82.21
2018-07-05T01:14:23.134Z,82.46
2018-07-05T01:15:23.044Z,82.98
2018-07-05T01:16:22.947Z,81.16
2018-07-05T01:17:22.843Z,81.54
2018-07-05T01:18:22.758Z,81.31
2018-07-05T01:19:22.666Z,80.58
2018-07-05T01:20:22.565Z,80.20
2018-07-05T01:21:22.475Z,81.16
2018-07-05T01:22:22.379Z,81.16
2018-07-05T01:23:22.276Z,82.21
2018-07-05T01:24:22.187Z,82.75
2018-07-05T01:25:22.095Z,83.04
2018-07-05T01:26:21.989Z,81.98
2018-07-05T01:27:21.899Z,80.74
2018-07-05T01:28:21.808Z,81.31
2018-07-05T01:29:21.707Z,80.83
2018-07-05T01:30:21.625Z,82.08
2018-07-05T01:31:21.528Z,81.60
2018-07-05T01:32:21.420Z,80.93
2018-07-05T01:33:21.328Z,80.74
2018-07-05T01:34:21.244Z,81.41
2018-07-05T01:35:21.139Z,80.83
2018-07-05T01:36:21.056Z,79.97
2018-07-05T01:37:20.957Z,80.55
2018-07-05T01:38:20.854Z,80.45
2018-07-05T01:39:20.760Z,80.83
2018-07-05T01:40:20.673Z,81.51
2018-07-05T01:41:20.836Z,81.51
2018-07-05T01:42:20.480Z,81.60
2018-07-05T01:43:20.384Z,80.83
2018-07-05T01:44:20.281Z,81.51
2018-07-05T01:45:20.190Z,80.35
2018-07-05T01:46:20.104Z,80.55
2018-07-05T01:47:19.999Z,80.74
2018-07-05T01:48:19.905Z,82.94
2018-07-05T01:49:19.814Z,83.33
2018-07-05T01:50:19.716Z,83.04
2018-07-05T01:51:19.627Z,83.71
2018-07-05T01:52:19.533Z,82.27
2018-07-05T01:53:19.429Z,81.60
2018-07-05T01:54:19.338Z,84.00
2018-07-05T01:55:19.243Z,80.83
2018-07-05T01:56:19.145Z,81.70
2018-07-05T01:57:19.053Z,80.83
2018-07-05T01:58:18.960Z,83.42
2018-07-05T01:59:18.856Z,84.91
2018-07-05T02:00:18.769Z,85.72
2018-07-05T02:01:18.675Z,84.48
2018-07-05T02:02:18.578Z,83.09
2018-07-05T02:03:18.486Z,82.18
2018-07-05T02:04:18.389Z,81.41
2018-07-05T02:05:18.285Z,81.12
2018-07-05T02:06:18.198Z,83.29
2018-07-05T02:07:18.120Z,82.46
2018-07-05T02:08:18.006Z,81.60
2018-07-05T02:09:17.916Z,80.26
2018-07-05T02:10:17.820Z,79.64
2018-07-05T02:11:17.716Z,79.78
2018-07-05T02:12:17.630Z,79.21
2018-07-05T02:13:17.539Z,79.26
2018-07-05T02:14:17.432Z,80.03
2018-07-05T02:15:17.341Z,80.51
2018-07-05T02:16:17.261Z,81.08
2018-07-05T02:17:17.144Z,81.37
2018-07-05T02:18:17.059Z,81.27
2018-07-05T02:19:16.956Z,80.99
2018-07-05T02:20:16.864Z,80.41
2018-07-05T02:21:16.772Z,79.26
2018-07-05T02:22:16.677Z,79.64
2018-07-05T02:23:16.581Z,79.45
2018-07-05T02:24:16.490Z,80.60
2018-07-05T02:25:16.386Z,80.99
2018-07-05T02:26:16.290Z,79.74
2018-07-05T02:27:16.201Z,79.93
2018-07-05T02:28:16.103Z,78.88
2018-07-05T02:29:16.012Z,78.69
2018-07-05T02:30:15.917Z,78.59
2018-07-05T02:31:15.814Z,78.40
2018-07-05T02:32:15.721Z,79.16
2018-07-05T02:33:15.631Z,78.20
2018-07-05T02:34:15.532Z,78.30
2018-07-05T02:35:15.440Z,78.20
2018-07-05T02:36:15.336Z,78.20
2018-07-05T02:37:15.247Z,78.30
2018-07-05T02:38:15.157Z,78.59
2018-07-05T02:39:15.054Z,79.26
2018-07-05T02:40:14.961Z,78.88
2018-07-05T02:41:15.120Z,77.34
2018-07-05T02:42:14.762Z,79.36
2018-07-05T02:43:14.673Z,78.97
2018-07-05T02:44:14.585Z,77.34
2018-07-05T02:45:14.482Z,77.06
2018-07-05T02:46:14.387Z,77.73
2018-07-05T02:47:14.305Z,76.86
2018-07-05T02:48:14.195Z,76.86
2018-07-05T02:49:14.104Z,78.02
2018-07-05T02:50:14.005Z,78.40
2018-07-05T02:51:13.920Z,79.59
2018-07-05T02:52:13.818Z,79.45
2018-07-05T02:53:13.715Z,78.97
2018-07-05T02:54:13.627Z,77.06
2018-07-05T02:55:13.536Z,78.34
2018-07-05T02:56:13.437Z,79.07
2018-07-05T02:57:13.348Z,78.78
2018-07-05T02:58:13.250Z,78.11
2018-07-05T02:59:13.147Z,79.78
2018-07-05T03:00:13.059Z,78.97
2018-07-05T03:01:13.208Z,78.97
2018-07-05T03:02:12.862Z,78.59
2018-07-05T03:03:12.771Z,79.36
2018-07-05T03:04:12.665Z,78.82
2018-07-05T03:05:12.576Z,77.76
2018-07-05T03:06:12.488Z,79.11
2018-07-05T03:07:12.384Z,79.11
2018-07-05T03:08:12.300Z,79.97
2018-07-05T03:09:12.201Z,79.78
2018-07-05T03:10:12.101Z,79.68
2018-07-05T03:11:12.012Z,80.83
2018-07-05T03:12:11.922Z,81.89
2018-07-05T03:13:11.814Z,82.08
2018-07-05T03:14:11.720Z,81.89
2018-07-05T03:15:11.631Z,83.08
2018-07-05T03:16:11.529Z,82.41
2018-07-05T03:17:11.440Z,82.75
2018-07-05T03:18:11.334Z,82.60
2018-07-05T03:19:11.241Z,81.93
2018-07-05T03:20:11.152Z,82.98
2018-07-05T03:21:11.049Z,81.93
2018-07-05T03:22:10.961Z,82.51
2018-07-05T03:23:10.872Z,82.41
2018-07-05T03:24:10.763Z,82.70
2018-07-05T03:25:10.671Z,82.79
2018-07-05T03:26:10.584Z,82.51
2018-07-05T03:27:10.481Z,83.37
2018-07-05T03:28:10.393Z,83.27
2018-07-05T03:29:10.302Z,85.42
2018-07-05T03:32:53.397Z,85.81
2018-07-05T03:33:53.295Z,85.91
2018-07-05T03:34:53.204Z,86.81
2018-07-05T03:35:53.112Z,85.18
2018-07-05T03:36:53.011Z,86.72
2018-07-05T03:37:52.919Z,85.18
2018-07-05T03:38:52.829Z,86.66
2018-07-05T03:40:38.692Z,86.38
2018-07-05T03:40:52.642Z,87.92
2018-07-05T03:42:25.758Z,87.72
2018-07-05T03:42:52.456Z,87.62
2018-07-05T03:43:52.347Z,88.15
2018-07-05T03:44:52.255Z,87.57
2018-07-05T03:45:52.171Z,88.06
2018-07-05T03:46:52.077Z,87.48
2018-07-05T03:47:51.970Z,88.24
2018-07-05T03:48:51.881Z,87.48
2018-07-05T03:49:51.791Z,87.33
2018-07-05T03:50:51.689Z,88.19
2018-07-05T03:51:51.601Z,87.52
2018-07-05T03:52:51.510Z,87.52
2018-07-05T03:53:51.420Z,86.75
2018-07-05T03:54:51.310Z,88.53
2018-07-05T03:55:51.223Z,87.18
2018-07-05T03:56:51.133Z,86.89
2018-07-05T03:57:51.343Z,86.69
2018-07-05T03:58:50.942Z,86.89
2018-07-05T03:59:50.845Z,86.60
2018-07-05T04:00:50.756Z,86.83
2018-07-05T04:01:50.668Z,86.65
2018-07-05T04:02:50.590Z,86.74
2018-07-05T04:03:50.471Z,86.35
2018-07-05T04:04:50.379Z,86.01
2018-07-05T04:05:50.285Z,85.91
2018-07-05T04:06:50.196Z,85.14
2018-07-05T04:07:50.107Z,85.34
2018-07-05T04:08:50.006Z,85.28
2018-07-05T04:10:09.122Z,82.87
2018-07-05T04:10:49.822Z,82.87
2018-07-05T04:11:49.730Z,82.97
2018-07-05T04:12:49.639Z,83.36
2018-07-05T04:13:49.540Z,82.59
2018-07-05T04:14:49.446Z,83.16
2018-07-05T04:15:49.404Z,82.39
2018-07-05T04:16:49.264Z,82.29
2018-07-05T04:17:49.173Z,82.10
2018-07-05T04:18:49.083Z,82.49
2018-07-05T04:20:01.736Z,81.76
2018-07-05T04:20:48.898Z,81.18
2018-07-05T04:23:32.346Z,80.51
2018-07-05T04:24:32.002Z,79.83
2018-07-05T04:25:31.910Z,78.96
2018-07-05T04:26:31.817Z,79.83
2018-07-05T04:27:31.726Z,80.12
2018-07-05T04:28:31.642Z,79.35
2018-07-05T04:29:31.537Z,79.93
2018-07-05T04:30:31.443Z,79.93
2018-07-05T04:31:31.352Z,79.93
2018-07-05T04:32:31.266Z,80.79
2018-07-05T04:33:31.174Z,80.22
2018-07-05T04:34:31.084Z,81.57
2018-07-05T04:35:30.991Z,81.47
2018-07-05T04:36:30.897Z,81.85
2018-07-05T04:37:30.805Z,81.57
2018-07-05T04:38:30.706Z,80.69
2018-07-05T04:39:30.619Z,80.60
2018-07-05T04:40:30.521Z,79.54
2018-07-05T04:41:30.431Z,79.49
2018-07-05T04:42:30.367Z,79.68
2018-07-05T04:43:30.252Z,80.54
2018-07-05T04:44:30.161Z,81.80
2018-07-05T04:45:30.070Z,81.99
2018-07-05T04:46:29.977Z,80.83
2018-07-05T04:47:29.886Z,80.93
2018-07-05T04:48:29.787Z,80.97
2018-07-05T04:49:29.694Z,80.87
2018-07-05T04:50:29.607Z,80.78
2018-07-05T04:51:29.516Z,80.78
2018-07-05T04:52:29.421Z,81.65
2018-07-05T04:53:29.330Z,82.03
2018-07-05T04:54:29.243Z,82.23
2018-07-05T04:55:29.160Z,83.09
2018-07-05T04:56:29.058Z,83.67
2018-07-05T04:57:28.967Z,83.77
2018-07-05T04:58:29.123Z,84.06
2018-07-05T04:59:28.782Z,83.48
2018-07-05T05:00:28.687Z,83.48
2018-07-05T05:01:28.597Z,83.29
2018-07-05T05:02:28.561Z,82.90
2018-07-05T05:03:28.409Z,82.84
2018-07-05T05:04:28.322Z,82.02
2018-07-05T05:05:28.231Z,79.93
2018-07-05T05:06:28.138Z,76.87
2018-07-05T05:07:28.049Z,73.53
2018-07-05T05:08:27.952Z,70.95
2018-07-05T05:09:27.862Z,69.82
2018-07-05T05:10:27.775Z,68.76
2018-07-05T05:11:27.685Z,67.34
2018-07-05T05:12:27.589Z,65.92
2018-07-05T05:13:27.499Z,65.24
2018-07-05T05:14:27.409Z,63.88
2018-07-05T05:15:27.319Z,62.04
2018-07-05T05:16:27.232Z,61.00
2018-07-05T05:17:27.142Z,59.84
2018-07-05T05:18:27.044Z,59.19
2018-07-05T05:19:26.954Z,58.61
2018-07-05T05:20:26.881Z,58.12
2018-07-05T05:21:26.779Z,57.47
2018-07-05T05:22:26.687Z,56.50
2018-07-05T05:23:26.858Z,56.30
2018-07-05T05:24:26.516Z,56.04
2018-07-05T05:25:26.424Z,55.55
2018-07-05T05:26:26.335Z,56.50
2018-07-05T05:27:26.244Z,56.60
2018-07-05T05:28:26.149Z,56.50
2018-07-05T05:29:26.057Z,56.36
2018-07-05T05:30:25.981Z,55.58
2018-07-05T05:31:25.895Z,54.64
2018-07-05T05:32:25.817Z,53.08
2018-07-05T05:33:25.713Z,53.20
2018-07-05T05:34:25.616Z,51.75
2018-07-05T05:35:25.541Z,51.39
2018-07-05T05:36:25.452Z,49.92
2018-07-05T05:37:25.362Z,49.83
2018-07-05T05:38:25.272Z,49.54
2018-07-05T05:39:25.183Z,49.56
2018-07-05T05:40:25.112Z,49.66
2018-07-05T05:41:25.009Z,48.49
2018-07-05T05:42:24.922Z,49.17
2018-07-05T05:43:25.093Z,48.49
2018-07-05T05:44:24.748Z,48.05
2018-07-05T05:45:24.659Z,49.12
2018-07-05T05:46:24.564Z,49.15
2018-07-05T05:47:24.486Z,48.85
2018-07-05T05:48:24.400Z,48.66
2018-07-05T05:49:24.309Z,48.46
2018-07-05T05:50:24.228Z,48.07
2018-07-05T05:51:24.137Z,47.59
2018-07-05T05:52:24.053Z,47.78
2018-07-05T05:53:23.979Z,47.88
2018-07-05T05:54:23.879Z,46.61
2018-07-05T05:55:23.789Z,46.93
2018-07-05T05:56:23.707Z,46.27
2018-07-05T05:57:23.615Z,44.93
2018-07-05T05:58:23.804Z,44.56
2018-07-05T05:59:23.451Z,44.09
2018-07-05T06:00:23.358Z,43.12
2018-07-05T06:01:23.277Z,44.09
2018-07-05T06:02:23.192Z,43.78
2018-07-05T06:03:23.098Z,43.78
2018-07-05T06:04:23.023Z,43.47
2018-07-05T06:05:22.933Z,44.46
2018-07-05T06:06:22.848Z,43.57
2018-07-05T06:07:22.756Z,44.79
2018-07-05T06:08:22.683Z,44.64
2018-07-05T06:09:22.592Z,44.03
2018-07-05T06:10:22.504Z,43.62
2018-07-05T06:11:22.426Z,43.74
2018-07-05T06:12:22.330Z,43.39
2018-07-05T06:13:22.252Z,42.83
2018-07-05T06:14:22.166Z,41.67
2018-07-05T06:15:22.107Z,40.55
2018-07-05T06:16:21.993Z,39.88
2018-07-05T06:17:21.913Z,39.96
2018-07-05T06:18:21.820Z,40.55
2018-07-05T06:19:21.742Z,39.78
2018-07-05T06:20:21.656Z,38.90
2018-07-05T06:21:21.613Z,39.28
2018-07-05T06:22:21.486Z,39.65
2018-07-05T06:23:21.406Z,39.76
2018-07-05T06:24:21.320Z,39.00
2018-07-05T06:25:21.242Z,38.24
2018-07-05T06:26:21.149Z,37.49
2018-07-05T06:27:21.070Z,36.72
2018-07-05T06:28:20.976Z,36.43
2018-07-05T06:29:20.898Z,35.68
2018-07-05T06:30:20.820Z,35.96
2018-07-05T06:31:20.744Z,36.92
2018-07-05T06:32:20.653Z,36.55
2018-07-05T06:33:20.564Z,36.94
2018-07-05T06:34:20.487Z,36.84
2018-07-05T06:35:20.408Z,36.80
2018-07-05T06:36:20.313Z,37.93
2018-07-05T06:37:20.235Z,38.71
2018-07-05T06:38:20.151Z,38.90
2018-07-05T06:39:20.094Z,40.01
2018-07-05T06:40:19.986Z,41.07
2018-07-05T06:41:19.895Z,42.14
2018-07-05T06:42:19.819Z,42.83
2018-07-05T06:43:19.990Z,41.66
2018-07-05T06:44:19.657Z,41.93
2018-07-05T06:45:19.587Z,41.89
2018-07-05T06:46:19.480Z,42.86
2018-07-05T06:47:19.438Z,43.30
2018-07-05T06:48:19.315Z,42.65
2018-07-05T06:49:19.278Z,42.40
2018-07-05T06:50:19.157Z,41.30
2018-07-05T06:51:19.078Z,42.65
2018-07-05T06:52:18.984Z,42.35
2018-07-05T06:53:18.893Z,42.40
2018-07-05T06:54:18.821Z,42.22
2018-07-05T06:55:18.729Z,40.80
2018-07-05T06:56:18.647Z,40.25
2018-07-05T06:57:18.557Z,38.87
2018-07-05T06:58:18.476Z,38.71
2018-07-05T06:59:18.474Z,38.02
2018-07-05T07:00:18.311Z,38.02
2018-07-05T07:01:18.232Z,38.51
2018-07-05T07:02:18.138Z,38.65
2018-07-05T07:03:18.064Z,37.83
2018-07-05T07:04:17.972Z,36.67
2018-07-05T07:05:17.894Z,36.65
2018-07-05T07:06:17.807Z,36.47
2018-07-05T07:07:17.727Z,37.34
2018-07-05T07:08:17.645Z,37.91
2018-07-05T07:09:17.553Z,38.87
2018-07-05T07:10:17.479Z,39.37
2018-07-05T07:11:17.399Z,38.51
2018-07-05T07:12:17.305Z,37.85
2018-07-05T07:13:17.226Z,36.69
2018-07-05T07:14:17.137Z,38.06
2018-07-05T07:15:17.063Z,36.61
2018-07-05T07:16:16.986Z,35.81
2018-07-05T07:17:16.895Z,36.10
2018-07-05T07:18:16.724Z,37.08
2018-07-05T07:19:16.671Z,36.40
2018-07-05T07:20:16.559Z,37.39
2018-07-05T07:21:16.480Z,35.94
2018-07-05T07:22:16.400Z,34.90
2018-07-05T07:23:16.310Z,34.88
2018-07-05T07:24:16.229Z,34.96
2018-07-05T07:25:16.149Z,36.40
2018-07-05T07:26:16.064Z,37.10
2018-07-05T07:27:15.986Z,36.40
2018-07-05T07:28:16.156Z,37.04
2018-07-05T07:29:15.813Z,37.54
2018-07-05T07:30:15.732Z,37.95
2018-07-05T07:31:15.717Z,36.90
2018-07-05T07:32:15.570Z,36.86
2018-07-05T07:33:15.490Z,35.80
2018-07-05T07:34:15.409Z,33.74
2018-07-05T07:35:15.331Z,34.61
2018-07-05T07:36:15.244Z,34.90
2018-07-05T07:37:15.166Z,34.81
2018-07-05T07:38:15.087Z,35.29
2018-07-05T07:39:15.009Z,33.92
2018-07-05T07:40:14.914Z,34.98
2018-07-05T07:41:14.834Z,36.14
2018-07-05T07:42:14.761Z,35.25
2018-07-05T07:43:14.933Z,35.52
2018-07-05T07:44:14.600Z,36.96
2018-07-05T07:45:14.511Z,37.85
2018-07-05T07:46:14.431Z,37.75
2018-07-05T07:47:14.351Z,37.14
2018-07-05T07:48:14.277Z,37.43
2018-07-05T07:49:14.185Z,37.73
2018-07-05T07:50:14.104Z,39.39
2018-07-05T07:51:14.029Z,40.17
2018-07-05T07:52:13.951Z,36.43
2018-07-05T07:53:13.861Z,36.94
2018-07-05T07:54:13.789Z,32.92
2018-07-05T07:55:13.706Z,32.51
2018-07-05T07:56:13.624Z,32.45
2018-07-05T07:57:13.533Z,32.28
2018-07-05T07:58:13.746Z,31.40
2018-07-05T07:59:13.398Z,30.66
2018-07-05T08:00:13.284Z,29.41
2018-07-05T08:01:13.206Z,28.83
2018-07-05T08:02:13.117Z,28.05
2018-07-05T08:03:13.037Z,28.47
2018-07-05T08:04:12.963Z,29.05
2018-07-05T08:05:12.887Z,29.90
2018-07-05T08:06:12.790Z,30.35
2018-07-05T08:07:12.713Z,31.40
2018-07-05T08:08:12.691Z,32.76
2018-07-05T08:09:12.560Z,35.09
2018-07-05T08:10:12.467Z,35.28
2018-07-05T08:11:12.388Z,35.48
2018-07-05T08:12:12.305Z,35.48
2018-07-05T08:13:12.240Z,34.13
2018-07-05T08:14:12.143Z,31.52
2018-07-05T08:15:12.066Z,30.77
2018-07-05T08:16:11.983Z,30.21
2018-07-05T08:17:11.892Z,29.63
2018-07-05T08:18:11.811Z,28.47
2018-07-05T08:19:11.733Z,29.27
2018-07-05T08:20:11.647Z,28.39
2018-07-05T08:21:11.568Z,28.97
2018-07-05T08:22:11.486Z,30.15
2018-07-05T08:23:11.395Z,29.39
2018-07-05T08:24:11.333Z,28.52
2018-07-05T08:25:11.242Z,27.84
2018-07-05T08:26:11.154Z,27.75
2018-07-05T08:27:11.076Z,28.11
2018-07-05T08:28:10.993Z,29.09
2018-07-05T08:29:10.901Z,29.38
2018-07-05T08:30:10.825Z,29.51
2018-07-05T08:31:10.747Z,30.40
2018-07-05T08:32:10.653Z,29.41
2018-07-05T08:33:10.575Z,26.99
2018-07-05T08:34:10.484Z,25.31
2018-07-05T08:35:10.407Z,26.39
2018-07-05T08:36:10.323Z,25.21
2018-07-05T08:37:10.265Z,24.81
2018-07-05T08:38:10.164Z,24.91
2018-07-05T08:39:10.076Z,24.93
2018-07-05T08:40:09.990Z,25.03
2018-07-05T08:41:09.900Z,25.03
2018-07-05T08:42:09.820Z,24.63
2018-07-05T08:43:09.742Z,24.53
2018-07-05T08:44:09.654Z,25.17
2018-07-05T08:45:09.590Z,25.49
2018-07-05T08:46:09.495Z,26.26
2018-07-05T08:47:09.405Z,27.15
2018-07-05T08:48:09.331Z,28.82
2018-07-05T08:49:09.253Z,28.40
2018-07-05T08:50:09.160Z,27.82
2018-07-05T08:51:09.141Z,27.26
2018-07-05T08:52:08.999Z,28.63
2018-07-05T08:53:08.911Z,27.53
2018-07-05T08:54:08.834Z,29.47
2018-07-05T08:55:08.756Z,29.77
2018-07-05T08:56:08.674Z,29.48
2018-07-05T08:57:08.586Z,30.33
2018-07-05T08:58:08.505Z,31.29
2018-07-05T08:59:08.428Z,31.41
2018-07-05T09:00:08.353Z,31.09
2018-07-05T09:01:08.275Z,29.86
2018-07-05T09:02:08.179Z,29.47
2018-07-05T09:03:08.100Z,29.31
2018-07-05T09:04:08.025Z,28.79
2018-07-05T09:05:07.997Z,30.46
2018-07-05T09:06:07.876Z,29.51
2018-07-05T09:07:07.784Z,29.13
2018-07-05T09:08:07.697Z,28.26
2018-07-05T09:09:07.624Z,28.05
2018-07-05T09:10:07.545Z,27.27
2018-07-05T09:11:07.485Z,26.87
2018-07-05T09:12:07.384Z,27.14
2018-07-05T09:13:07.306Z,27.54
2018-07-05T09:14:07.216Z,27.06
2018-07-05T09:15:07.135Z,26.19
2018-07-05T09:16:07.061Z,26.99
2018-07-05T09:17:06.982Z,26.40
2018-07-05T09:18:06.976Z,26.31
2018-07-05T09:19:06.825Z,26.39
2018-07-05T09:20:06.750Z,26.87
2018-07-05T09:21:06.672Z,26.21
2018-07-05T09:22:06.591Z,26.19
2018-07-05T09:23:06.519Z,26.21
2018-07-05T09:24:06.431Z,26.31
2018-07-05T09:25:06.353Z,26.15
2018-07-05T09:26:06.278Z,25.84
2018-07-05T09:27:06.201Z,25.74
2018-07-05T09:28:06.118Z,26.09
2018-07-05T09:29:06.039Z,26.77
2018-07-05T09:30:05.974Z,27.25
2018-07-05T09:31:05.905Z,27.34
2018-07-05T09:32:05.836Z,26.78
2018-07-05T09:33:05.743Z,27.37
2018-07-05T09:34:05.663Z,26.53
2018-07-05T09:35:05.589Z,25.05
2018-07-05T09:36:05.507Z,25.65
2018-07-05T09:37:05.511Z,25.15
2018-07-05T09:38:05.376Z,24.77
2018-07-05T09:39:05.274Z,24.68
2018-07-05T09:40:05.191Z,24.39
2018-07-05T09:41:05.127Z,25.52
2018-07-05T09:42:05.039Z,25.29
2018-07-05T09:43:04.972Z,25.76
2018-07-05T09:44:04.889Z,27.20
2018-07-05T09:45:04.811Z,28.58
2018-07-05T09:46:04.735Z,29.03
2018-07-05T09:47:04.723Z,29.90
2018-07-05T09:48:04.581Z,30.49
2018-07-05T09:49:04.504Z,30.00
2018-07-05T09:50:04.420Z,31.06
2018-07-05T09:51:04.342Z,32.04
2018-07-05T09:52:04.267Z,30.85
2018-07-05T09:53:04.188Z,30.75
2018-07-05T09:54:04.113Z,30.96
2018-07-05T09:55:04.035Z,30.02
2018-07-05T09:56:03.939Z,29.38
2018-07-05T09:57:03.861Z,29.13
2018-07-05T09:58:04.041Z,26.90
2018-07-05T09:59:03.710Z,25.73
2018-07-05T10:00:03.626Z,26.35
2018-07-05T10:01:03.546Z,25.16
2018-07-05T10:02:03.466Z,23.98
2018-07-05T10:03:03.389Z,25.54
2018-07-05T10:04:03.326Z,25.32
2018-07-05T10:05:03.236Z,26.08
2018-07-05T10:06:03.155Z,26.18
2018-07-05T10:07:03.077Z,26.65
2018-07-05T10:08:03.003Z,26.47
2018-07-05T10:09:02.925Z,27.94
2018-07-05T10:10:02.844Z,26.54
2018-07-05T10:11:02.765Z,28.31
2018-07-05T10:12:02.683Z,27.23
2018-07-05T10:13:02.677Z,28.33
2018-07-05T10:14:02.532Z,26.35
2018-07-05T10:15:02.452Z,26.74
2018-07-05T10:16:02.370Z,27.22
2018-07-05T10:17:02.293Z,27.29
2018-07-05T10:18:02.229Z,28.39
2018-07-05T10:19:02.126Z,28.41
2018-07-05T10:20:02.051Z,27.44
2018-07-05T10:21:01.984Z,26.29
2018-07-05T10:22:01.892Z,26.12
2018-07-05T10:23:01.813Z,25.62
2018-07-05T10:24:01.737Z,25.44
2018-07-05T10:25:01.657Z,24.56
2018-07-05T10:26:01.581Z,23.39
2018-07-05T10:27:01.537Z,22.52
2018-07-05T10:28:01.422Z,22.91
2018-07-05T10:29:01.342Z,22.82
2018-07-05T10:30:01.271Z,23.28
2018-07-05T10:31:01.191Z,23.27
2018-07-05T10:32:01.108Z,24.27
2018-07-05T10:33:01.066Z,23.87
2018-07-05T10:34:00.960Z,24.48
2018-07-05T10:35:00.881Z,23.98
2018-07-05T10:36:00.809Z,23.87
2018-07-05T10:37:00.729Z,24.65
2018-07-05T10:38:00.900Z,24.82
2018-07-05T10:39:00.571Z,24.99
2018-07-05T10:40:00.510Z,25.98
2018-07-05T10:41:00.431Z,26.29
2018-07-05T10:42:00.351Z,26.03
2018-07-05T10:43:00.274Z,24.86
2018-07-05T10:44:00.205Z,23.40
2018-07-05T10:45:00.124Z,23.49
2018-07-05T10:46:00.053Z,24.06
2018-07-05T10:46:59.980Z,23.96
2018-07-05T10:47:59.908Z,24.07
2018-07-05T10:48:59.828Z,24.66
2018-07-05T10:49:59.752Z,23.80
2018-07-05T10:50:59.685Z,24.27
2018-07-05T10:51:59.605Z,25.14
2018-07-05T10:52:59.527Z,24.95
2018-07-05T10:53:59.462Z,24.45
2018-07-05T10:54:59.384Z,23.87
2018-07-05T10:55:59.303Z,24.07
2018-07-05T10:56:59.235Z,24.37
2018-07-05T10:57:59.161Z,23.90
2018-07-05T10:58:59.080Z,23.98
2018-07-05T10:59:59.018Z,23.50
2018-07-05T11:00:58.963Z,22.62
2018-07-05T11:01:58.858Z,23.77
2018-07-05T11:02:58.791Z,23.21
2018-07-05T11:03:58.717Z,22.63
2018-07-05T11:04:58.638Z,22.63
2018-07-05T11:05:58.573Z,22.03
2018-07-05T11:06:58.493Z,22.82
2018-07-05T11:07:58.411Z,22.72
2018-07-05T11:08:58.333Z,22.45
2018-07-05T11:09:58.272Z,22.07
2018-07-05T11:10:58.194Z,22.45
2018-07-05T11:11:58.112Z,23.91
2018-07-05T11:12:58.033Z,23.61
2018-07-05T11:13:57.967Z,23.40
2018-07-05T11:14:57.888Z,23.87
2018-07-05T11:15:57.813Z,23.70
2018-07-05T11:16:57.737Z,23.41
2018-07-05T11:17:57.914Z,23.97
2018-07-05T11:18:57.586Z,23.98
2018-07-05T11:19:57.512Z,23.69
2018-07-05T11:20:57.473Z,23.59
2018-07-05T11:21:57.372Z,23.90
2018-07-05T11:22:57.296Z,23.99
2018-07-05T11:23:57.210Z,23.98
2018-07-05T11:24:57.144Z,24.66
2018-07-05T11:25:57.069Z,23.95
2018-07-05T11:26:57.002Z,24.92
2018-07-05T11:27:56.908Z,26.28
2018-07-05T11:28:56.842Z,26.36
2018-07-05T11:29:56.765Z,26.36
2018-07-05T11:30:56.692Z,27.02
2018-07-05T11:31:56.613Z,27.43
2018-07-05T11:32:56.536Z,28.05
2018-07-05T11:33:56.464Z,26.47
2018-07-05T11:34:56.385Z,26.85
2018-07-05T11:35:56.313Z,26.28
2018-07-05T11:36:56.233Z,26.39
2018-07-05T11:37:56.153Z,25.81
2018-07-05T11:38:56.076Z,26.10
2018-07-05T11:39:55.995Z,25.51
2018-07-05T11:40:55.916Z,25.14
2018-07-05T11:41:55.855Z,23.70
2018-07-05T11:42:55.779Z,23.60
2018-07-05T11:43:55.694Z,23.70
2018-07-05T11:44:55.615Z,24.88
2018-07-05T11:45:55.531Z,23.80
2018-07-05T11:46:55.457Z,23.40
2018-07-05T11:47:55.445Z,23.50
2018-07-05T11:48:55.316Z,23.33
2018-07-05T11:49:55.236Z,22.94
2018-07-05T11:50:55.158Z,22.64
2018-07-05T11:51:55.083Z,22.07
2018-07-05T11:52:55.006Z,22.37
2018-07-05T11:53:54.928Z,22.17
2018-07-05T11:54:54.972Z,21.77
2018-07-05T11:55:54.777Z,22.85
2018-07-05T11:56:54.699Z,22.81
2018-07-05T11:57:54.877Z,23.68
2018-07-05T11:58:54.560Z,23.29
2018-07-05T11:59:54.478Z,23.98
2018-07-05T12:00:54.404Z,25.08
2018-07-05T12:01:54.332Z,23.72
2018-07-05T12:02:54.270Z,23.22
2018-07-05T12:03:54.180Z,23.87
2018-07-05T12:04:54.101Z,24.93
2018-07-05T12:05:54.019Z,25.33
2018-07-05T12:06:53.943Z,26.31
2018-07-05T12:07:53.867Z,26.20
2018-07-05T12:08:53.800Z,26.39
2018-07-05T12:09:53.724Z,27.64
2018-07-05T12:10:53.645Z,27.14
2018-07-05T12:11:53.563Z,28.49
2018-07-05T12:12:53.498Z,29.53
2018-07-05T12:13:53.421Z,30.40
2018-07-05T12:14:53.345Z,31.27
2018-07-05T12:15:53.261Z,31.96
2018-07-05T12:16:53.196Z,31.27
2018-07-05T12:17:53.118Z,31.86
2018-07-05T12:18:53.055Z,30.29
2018-07-05T12:19:52.968Z,30.88
2018-07-05T12:20:52.900Z,31.76
2018-07-05T12:21:52.817Z,31.84
2018-07-05T12:22:52.739Z,32.22
2018-07-05T12:23:52.670Z,32.01
2018-07-05T12:24:52.587Z,32.78
2018-07-05T12:25:52.507Z,33.18
2018-07-05T12:26:52.442Z,33.38
2018-07-05T12:27:52.360Z,33.69
2018-07-05T12:28:52.280Z,33.59
2018-07-05T12:29:52.208Z,33.00
2018-07-05T12:30:52.129Z,32.81
2018-07-05T12:31:52.047Z,33.18
2018-07-05T12:32:51.968Z,33.09
2018-07-05T12:33:51.889Z,33.95
2018-07-05T12:34:51.802Z,33.46
2018-07-05T12:35:51.725Z,33.75
2018-07-05T12:36:51.657Z,34.05
2018-07-05T12:37:51.813Z,33.26
2018-07-05T12:38:51.484Z,32.78
2018-07-05T12:39:51.399Z,33.75
2018-07-05T12:40:51.319Z,33.85
2018-07-05T12:41:51.242Z,33.54
2018-07-05T12:42:51.163Z,34.54
2018-07-05T12:43:51.072Z,34.62
2018-07-05T12:44:50.992Z,34.23
2018-07-05T12:45:50.915Z,33.94
2018-07-05T12:46:50.860Z,34.42
2018-07-05T12:47:50.741Z,35.01
2018-07-05T12:48:50.663Z,35.01
2018-07-05T12:49:50.587Z,35.11
2018-07-05T12:50:50.496Z,35.01
2018-07-05T12:51:50.439Z,34.93
2018-07-05T12:52:50.332Z,34.83
2018-07-05T12:53:50.247Z,35.34
2018-07-05T12:54:50.182Z,34.36
2018-07-05T12:55:50.082Z,34.94